Time;durP1;ratioP1;P1;durP2;ratioP2;P2;SDS_P1;SDS_P2;PMS_P1;PMS_P2;Temp;Humidity;BMP_temperature;BMP_pressure;BME280_temperature;BME280_humidity;BME280_pressure;Samples;Min_cycle;Max_cycle;Signal;HPM_P1;HPM_P2
2023/03/25 00:02:19;;;;;;;2.45;0.73;;;8.70;94.50;;;;;;4997573;28;20053;-77
2023/03/25 00:04:49;;;;;;;1.52;0.70;;;8.70;94.50;;;;;;5015230;28;20426;-77
2023/03/25 00:07:17;;;;;;;1.85;0.68;;;8.70;94.50;;;;;;5025880;28;20056;-76
2023/03/25 00:09:43;;;;;;;0.85;0.47;;;8.70;94.50;;;;;;5015791;28;20029;-76
2023/03/25 00:12:08;;;;;;;1.45;0.57;;;8.70;94.50;;;;;;5015193;28;20072;-77
2023/03/25 00:14:34;;;;;;;0.75;0.40;;;8.70;94.50;;;;;;5016335;28;20026;-78
2023/03/25 00:17:00;;;;;;;0.60;0.30;;;8.60;94.60;;;;;;5024779;28;20025;-78
2023/03/25 00:19:26;;;;;;;0.45;0.38;;;8.60;94.60;;;;;;5024730;28;20080;-78
2023/03/25 00:21:53;;;;;;;1.30;0.38;;;8.50;94.70;;;;;;5000531;28;20030;-76
2023/03/25 00:24:19;;;;;;;0.75;0.50;;;8.50;94.80;;;;;;5016389;28;20618;-76
2023/03/25 00:26:47;;;;;;;1.17;0.70;;;8.50;94.80;;;;;;5020084;28;20021;-78
2023/03/25 00:29:16;;;;;;;2.05;0.60;;;8.50;94.80;;;;;;5030328;28;20486;-77
2023/03/25 00:31:42;;;;;;;2.70;0.70;;;8.50;94.80;;;;;;5028651;28;20030;-77
2023/03/25 00:34:08;;;;;;;0.47;0.43;;;8.50;94.70;;;;;;5014765;28;20413;-78
2023/03/25 00:36:37;;;;;;;2.30;1.25;;;8.50;94.60;;;;;;5026565;28;20029;-77
2023/03/25 00:39:07;;;;;;;1.00;0.45;;;8.50;94.50;;;;;;4986403;28;20032;-77
2023/03/25 00:41:35;;;;;;;1.35;0.60;;;8.60;94.50;;;;;;5028542;28;20487;-76
2023/03/25 00:44:02;;;;;;;0.98;0.55;;;8.50;94.40;;;;;;4996958;28;20127;-77
2023/03/25 00:46:30;;;;;;;1.00;0.60;;;8.60;94.30;;;;;;5017336;28;20025;-77
2023/03/25 00:48:57;;;;;;;2.15;0.60;;;8.60;94.20;;;;;;5034431;28;20429;-77
2023/03/25 00:51:25;;;;;;;1.20;0.65;;;8.60;93.90;;;;;;5033300;28;20490;-78
2023/03/25 00:53:59;;;;;;;0.63;0.32;;;8.70;93.70;;;;;;5024363;28;20037;-79
2023/03/25 00:56:25;;;;;;;3.08;0.70;;;8.80;93.50;;;;;;5013388;28;20038;-77
2023/03/25 00:58:50;;;;;;;0.55;0.45;;;8.80;93.20;;;;;;5014542;28;20099;-78
2023/03/25 01:01:22;;;;;;;1.40;0.47;;;8.90;92.90;;;;;;5013102;28;20026;-76
2023/03/25 01:03:56;;;;;;;1.83;0.50;;;9.00;92.60;;;;;;5021098;28;20052;-78
2023/03/25 01:06:27;;;;;;;1.40;0.65;;;9.10;92.30;;;;;;5027977;28;20025;-77
2023/03/25 01:08:57;;;;;;;2.47;0.52;;;9.10;92.10;;;;;;5026764;28;20060;-76
2023/03/25 01:11:26;;;;;;;1.50;0.50;;;9.20;91.90;;;;;;5008727;28;20022;-78
2023/03/25 01:13:54;;;;;;;2.08;0.47;;;9.20;91.70;;;;;;5034168;28;20029;-78
2023/03/25 01:16:20;;;;;;;3.05;0.80;;;9.20;91.60;;;;;;5015492;28;20120;-77
2023/03/25 01:18:45;;;;;;;1.00;0.52;;;9.10;91.50;;;;;;5022750;28;20084;-76
2023/03/25 01:21:11;;;;;;;2.42;0.50;;;9.20;91.50;;;;;;5039002;28;20029;-78
2023/03/25 01:23:37;;;;;;;1.42;0.43;;;9.20;91.50;;;;;;5019080;28;20041;-78
2023/03/25 01:26:03;;;;;;;2.33;0.50;;;9.30;91.40;;;;;;5016826;28;20033;-77
2023/03/25 01:28:29;;;;;;;2.30;0.38;;;9.40;91.10;;;;;;5021651;28;20037;-77
2023/03/25 01:31:03;;;;;;;1.50;0.30;;;9.40;90.90;;;;;;5027130;28;20064;-77
2023/03/25 01:33:29;;;;;;;1.58;0.47;;;9.50;90.70;;;;;;5016800;28;20045;-78
2023/03/25 01:35:54;;;;;;;1.63;0.60;;;9.50;90.60;;;;;;5026067;28;20152;-77
2023/03/25 01:38:21;;;;;;;1.20;0.52;;;9.50;90.50;;;;;;5025502;28;20064;-76
2023/03/25 01:40:47;;;;;;;1.23;0.60;;;9.40;90.50;;;;;;5046380;28;20033;-76
2023/03/25 01:43:14;;;;;;;2.40;0.50;;;9.50;90.40;;;;;;5020922;28;20087;-78
2023/03/25 01:45:40;;;;;;;2.47;0.50;;;9.50;90.30;;;;;;5017587;28;20109;-77
2023/03/25 01:48:14;;;;;;;0.70;0.38;;;9.50;90.30;;;;;;4999845;28;20036;-77
2023/03/25 01:50:44;;;;;;;1.20;0.90;;;9.50;90.30;;;;;;5017917;28;20025;-77
2023/03/25 01:53:10;;;;;;;2.35;0.68;;;9.50;90.30;;;;;;5018233;28;20037;-76
2023/03/25 01:55:37;;;;;;;0.95;0.47;;;9.50;90.20;;;;;;5033210;28;20025;-77
2023/03/25 01:58:10;;;;;;;1.17;0.60;;;9.50;90.10;;;;;;5014955;28;20079;-78
2023/03/25 02:00:39;;;;;;;1.45;0.60;;;9.50;90.10;;;;;;5038029;28;20517;-77
2023/03/25 02:03:07;;;;;;;2.65;0.70;;;9.60;90.10;;;;;;5035200;28;20033;-77
2023/03/25 02:05:46;;;;;;;0.80;0.43;;;9.60;90.00;;;;;;5031169;28;20022;-77
2023/03/25 02:08:14;;;;;;;1.80;0.50;;;9.60;89.50;;;;;;5033677;28;20021;-77
2023/03/25 02:10:43;;;;;;;1.27;0.60;;;9.60;89.30;;;;;;5037138;28;20017;-77
2023/03/25 02:13:10;;;;;;;3.85;0.60;;;9.60;88.80;;;;;;5018271;28;20029;-77
2023/03/25 02:15:54;;;;;;;2.63;0.52;;;9.60;88.80;;;;;;5027809;28;20025;-77
2023/03/25 02:18:50;;;;;;;2.65;0.73;;;9.60;88.60;;;;;;5033162;28;20026;-77
2023/03/25 02:21:18;;;;;;;1.30;0.50;;;9.70;88.70;;;;;;5016702;28;20033;-77
2023/03/25 02:24:21;;;;;;;3.63;0.60;;;9.60;88.70;;;;;;5022648;28;20033;-78
2023/03/25 02:27:12;;;;;;;1.65;0.40;;;9.70;88.50;;;;;;5023359;28;20620;-78
2023/03/25 02:29:52;;;;;;;1.95;0.30;;;9.60;88.40;;;;;;5017684;28;20084;-77
2023/03/25 02:32:36;;;;;;;4.97;0.77;;;9.50;88.20;;;;;;5018813;28;20022;-77
2023/03/25 02:35:15;;;;;;;3.10;0.40;;;9.50;88.20;;;;;;5024431;28;20017;-77
2023/03/25 02:37:57;;;;;;;1.38;0.50;;;9.40;88.10;;;;;;5055499;28;20036;-76
2023/03/25 02:40:32;;;;;;;3.50;0.40;;;9.30;88.20;;;;;;5021090;28;20034;-77
2023/03/25 02:43:04;;;;;;;1.85;0.40;;;9.20;88.60;;;;;;5030520;28;20026;-75
2023/03/25 02:45:52;;;;;;;0.57;0.22;;;9.10;88.70;;;;;;5035638;28;20030;-76
2023/03/25 02:48:39;;;;;;;0.95;0.50;;;8.90;89.00;;;;;;5013242;28;20417;-78
2023/03/25 02:51:12;;;;;;;1.05;0.40;;;8.90;89.10;;;;;;5021246;28;20029;-77
2023/03/25 02:53:40;;;;;;;4.93;1.27;;;8.90;89.40;;;;;;5020058;28;20034;-77
2023/03/25 02:56:14;;;;;;;2.05;0.40;;;8.90;89.40;;;;;;5018255;28;20029;-76
2023/03/25 02:58:42;;;;;;;0.80;0.30;;;9.00;89.00;;;;;;5019182;28;20029;-77
2023/03/25 03:01:08;;;;;;;0.50;0.22;;;9.00;88.70;;;;;;5039880;28;20089;-77
2023/03/25 03:03:35;;;;;;;3.70;0.63;;;8.90;88.30;;;;;;5038639;28;20064;-77
2023/03/25 03:06:03;;;;;;;2.50;0.57;;;8.90;88.50;;;;;;5030704;28;20029;-77
2023/03/25 03:08:54;;;;;;;1.15;0.43;;;8.80;88.60;;;;;;5035991;28;20087;-77
2023/03/25 03:11:53;;;;;;;3.60;0.68;;;8.80;88.90;;;;;;5037375;28;20014;-77
2023/03/25 03:18:14;;;;;;;2.08;0.52;;;8.90;88.80;;;;;;5044881;23;20034;-81
2023/03/25 03:20:59;;;;;;;1.25;0.30;;;8.90;88.30;;;;;;4955969;28;20815;-77
2023/03/25 03:23:55;;;;;;;2.15;0.75;;;8.90;88.20;;;;;;4939860;29;20027;-78
2023/03/25 03:26:42;;;;;;;1.33;0.38;;;8.80;88.40;;;;;;5007561;28;20505;-77
2023/03/25 03:29:26;;;;;;;0.73;0.28;;;8.80;88.20;;;;;;5012539;28;20036;-76
2023/03/25 03:32:19;;;;;;;4.13;1.10;;;8.80;88.20;;;;;;5034424;28;20021;-76
2023/03/25 03:34:52;;;;;;;4.93;0.70;;;8.70;87.80;;;;;;5017135;28;20061;-78
2023/03/25 03:37:22;;;;;;;3.25;0.73;;;8.60;87.80;;;;;;5029307;28;20038;-76
2023/03/25 03:39:51;;;;;;;2.58;0.60;;;8.50;88.00;;;;;;5018050;28;20094;-77
2023/03/25 03:42:28;;;;;;;2.78;0.50;;;8.50;88.50;;;;;;5024678;28;20018;-77
2023/03/25 03:45:01;;;;;;;2.60;0.55;;;8.40;88.80;;;;;;5034636;28;20390;-77
2023/03/25 03:47:40;;;;;;;1.45;0.88;;;8.40;89.30;;;;;;5024960;28;20101;-77
2023/03/25 03:50:14;;;;;;;2.55;0.47;;;8.40;89.80;;;;;;5016426;28;20069;-78
2023/03/25 03:52:56;;;;;;;2.33;0.82;;;8.40;90.00;;;;;;5030535;28;20018;-76
2023/03/25 03:55:36;;;;;;;2.10;0.45;;;8.30;90.20;;;;;;5013468;28;20077;-76
2023/03/25 03:58:08;;;;;;;2.95;1.02;;;8.20;90.40;;;;;;5016431;28;20498;-76
2023/03/25 04:00:49;;;;;;;5.25;0.60;;;8.20;90.50;;;;;;5025834;28;20418;-78
2023/03/25 04:03:27;;;;;;;1.48;0.40;;;8.20;90.60;;;;;;5026683;28;20487;-78
2023/03/25 04:06:07;;;;;;;4.93;0.80;;;8.10;90.80;;;;;;5021877;28;20024;-77
2023/03/25 04:09:25;;;;;;;1.40;0.30;;;8.00;90.90;;;;;;5012387;28;20091;-77
2023/03/25 04:11:57;;;;;;;1.75;0.50;;;7.90;91.10;;;;;;4954543;29;20089;-77
2023/03/25 04:14:23;;;;;;;2.33;0.52;;;7.90;91.00;;;;;;5018534;28;20128;-76
2023/03/25 04:16:54;;;;;;;0.80;0.40;;;8.00;90.90;;;;;;5018605;28;20064;-76
2023/03/25 04:19:19;;;;;;;2.90;0.30;;;7.90;90.90;;;;;;5018566;28;20038;-77
2023/03/25 04:21:49;;;;;;;5.38;0.77;;;7.90;91.00;;;;;;5021815;28;20041;-77
2023/03/25 04:24:18;;;;;;;0.90;0.47;;;7.80;91.00;;;;;;5028731;28;20033;-77
2023/03/25 04:26:44;;;;;;;2.28;0.73;;;7.80;91.10;;;;;;5021153;28;20546;-77
2023/03/25 04:29:12;;;;;;;4.53;0.60;;;7.80;91.10;;;;;;5029057;28;20022;-77
2023/03/25 04:31:44;;;;;;;1.38;0.55;;;7.70;91.00;;;;;;5031594;28;20029;-76
2023/03/25 04:34:12;;;;;;;;;;;7.70;91.00;;;;;;4998554;28;20026;-79
2023/03/25 04:36:45;;;;;;;4.85;0.70;;;7.70;91.00;;;;;;5029864;28;19973;-77
2023/03/25 04:39:11;;;;;;;2.65;0.55;;;7.70;90.90;;;;;;5035083;28;20026;-77
2023/03/25 04:41:37;;;;;;;3.97;0.65;;;7.70;90.80;;;;;;5018481;28;20033;-77
2023/03/25 04:44:06;;;;;;;2.03;0.73;;;7.80;90.80;;;;;;5020032;28;20112;-78
2023/03/25 04:46:33;;;;;;;4.13;0.60;;;7.70;90.90;;;;;;5013736;28;20049;-77
2023/03/25 04:49:04;;;;;;;5.50;1.17;;;7.70;90.60;;;;;;5033228;28;20052;-76
2023/03/25 04:51:30;;;;;;;5.90;0.90;;;7.80;90.50;;;;;;5033612;28;20505;-77
2023/03/25 04:53:56;;;;;;;2.60;0.68;;;7.80;90.20;;;;;;5002765;28;20038;-77
2023/03/25 04:56:22;;;;;;;3.85;0.82;;;7.90;90.00;;;;;;5024736;28;20032;-77
2023/03/25 04:58:47;;;;;;;2.65;0.80;;;8.00;89.70;;;;;;5005905;28;20061;-76
2023/03/25 05:01:31;;;;;;;4.38;0.80;;;8.00;89.40;;;;;;5034841;28;20095;-76
2023/03/25 05:04:03;;;;;;;5.68;0.77;;;8.00;89.20;;;;;;5005775;28;20413;-76
2023/03/25 05:06:34;;;;;;;2.67;0.52;;;8.10;89.20;;;;;;5026089;28;20049;-77
2023/03/25 05:09:02;;;;;;;3.25;0.75;;;8.10;89.10;;;;;;5039483;28;20018;-78
2023/03/25 05:11:28;;;;;;;3.05;0.68;;;8.10;88.80;;;;;;5038511;28;20474;-78
2023/03/25 05:13:54;;;;;;;1.30;0.43;;;8.20;88.70;;;;;;5024992;28;20040;-76
2023/03/25 05:16:21;;;;;;;1.55;0.50;;;8.20;88.80;;;;;;5001916;28;20061;-77
2023/03/25 05:18:47;;;;;;;2.10;0.45;;;8.20;88.90;;;;;;5026458;28;20029;-77
2023/03/25 05:21:12;;;;;;;2.28;0.60;;;8.20;88.90;;;;;;5018911;28;20134;-76
2023/03/25 05:23:38;;;;;;;1.30;0.57;;;8.20;89.00;;;;;;5020297;28;20026;-76
2023/03/25 05:26:05;;;;;;;2.72;0.55;;;8.20;89.10;;;;;;5002063;28;20037;-77
2023/03/25 05:28:30;;;;;;;2.10;0.43;;;8.20;89.00;;;;;;5022687;28;20390;-77
2023/03/25 05:30:56;;;;;;;6.22;0.88;;;8.20;89.00;;;;;;5021627;28;20018;-76
2023/03/25 05:33:22;;;;;;;1.90;0.50;;;8.20;89.10;;;;;;5020676;28;20037;-78
2023/03/25 05:35:49;;;;;;;0.63;0.32;;;8.30;88.70;;;;;;5043704;28;20041;-76
2023/03/25 05:38:17;;;;;;;1.60;0.38;;;8.30;88.50;;;;;;5015158;28;20026;-76
2023/03/25 05:40:45;;;;;;;3.83;0.50;;;8.40;88.40;;;;;;5005306;28;20097;-77
2023/03/25 05:43:11;;;;;;;2.15;0.60;;;8.50;87.90;;;;;;5038083;28;20037;-76
2023/03/25 05:45:37;;;;;;;4.55;0.70;;;8.60;87.50;;;;;;5039801;28;20208;-78
2023/03/25 05:48:03;;;;;;;0.85;0.50;;;8.70;86.90;;;;;;5025105;28;20067;-78
2023/03/25 05:50:29;;;;;;;0.75;0.40;;;8.90;86.20;;;;;;5030614;28;20026;-77
2023/03/25 05:52:56;;;;;;;0.60;0.30;;;9.10;85.60;;;;;;5030153;28;20029;-77
2023/03/25 05:55:22;;;;;;;0.50;0.30;;;9.20;84.90;;;;;;5031228;28;20031;-76
2023/03/25 05:57:49;;;;;;;1.63;0.40;;;9.10;84.60;;;;;;5039165;28;20037;-77
2023/03/25 06:00:18;;;;;;;0.22;0.17;;;9.10;85.30;;;;;;5010812;28;20056;-77
2023/03/25 06:02:44;;;;;;;1.20;0.28;;;9.10;85.00;;;;;;5010009;28;20032;-76
2023/03/25 06:05:14;;;;;;;1.55;0.28;;;9.00;84.60;;;;;;5032630;28;20029;-76
2023/03/25 06:07:48;;;;;;;0.80;0.40;;;9.00;84.70;;;;;;5048559;28;20009;-77
2023/03/25 06:10:16;;;;;;;0.45;0.30;;;9.00;84.70;;;;;;5020539;28;20073;-77
2023/03/25 06:12:42;;;;;;;0.30;0.10;;;9.00;84.10;;;;;;5030100;28;20026;-77
2023/03/25 06:15:10;;;;;;;1.27;0.30;;;9.00;84.20;;;;;;5016697;28;20083;-77
2023/03/25 06:17:39;;;;;;;0.65;0.13;;;9.00;84.00;;;;;;5023041;28;20045;-77
2023/03/25 06:20:11;;;;;;;0.73;0.20;;;9.00;84.00;;;;;;5034512;28;20021;-78
2023/03/25 06:22:43;;;;;;;2.33;0.30;;;9.10;83.40;;;;;;5031486;28;20441;-77
2023/03/25 06:25:19;;;;;;;0.10;0.10;;;9.10;82.10;;;;;;5010145;28;20026;-77
2023/03/25 06:27:47;;;;;;;0.20;0.15;;;9.20;81.80;;;;;;5030616;28;20010;-77
2023/03/25 06:30:16;;;;;;;0.63;0.15;;;9.20;81.20;;;;;;5026662;28;20025;-78
2023/03/25 06:32:42;;;;;;;0.40;0.20;;;9.20;80.60;;;;;;5006462;28;20494;-77
2023/03/25 06:35:10;;;;;;;0.40;0.20;;;9.20;79.50;;;;;;5029111;28;20029;-77
2023/03/25 06:37:37;;;;;;;2.08;0.20;;;9.20;77.70;;;;;;5021996;28;20109;-77
2023/03/25 06:40:04;;;;;;;0.15;0.15;;;9.20;77.50;;;;;;5028262;28;20033;-77
2023/03/25 06:42:31;;;;;;;1.30;0.20;;;9.10;77.50;;;;;;5021395;28;20010;-77
2023/03/25 06:44:57;;;;;;;1.77;0.32;;;9.10;76.80;;;;;;5025532;28;20515;-79
2023/03/25 06:47:22;;;;;;;0.08;0.08;;;9.00;76.10;;;;;;5014278;28;20030;-79
2023/03/25 06:49:49;;;;;;;0.30;0.17;;;9.00;76.30;;;;;;5015948;28;20026;-76
2023/03/25 06:52:15;;;;;;;0.10;0.10;;;9.00;76.60;;;;;;5016400;28;20495;-78
2023/03/25 06:54:41;;;;;;;2.25;0.30;;;8.90;76.60;;;;;;5015254;28;20482;-77
2023/03/25 06:57:06;;;;;;;1.85;0.10;;;8.90;76.60;;;;;;5017218;28;20033;-77
2023/03/25 06:59:32;;;;;;;0.82;0.30;;;8.90;76.80;;;;;;5018043;28;20100;-77
2023/03/25 07:01:58;;;;;;;0.28;0.15;;;8.80;77.00;;;;;;5017540;28;20077;-77
2023/03/25 07:04:24;;;;;;;0.77;0.20;;;8.80;77.60;;;;;;5020737;28;20034;-77
2023/03/25 07:06:49;;;;;;;0.10;0.10;;;8.80;78.10;;;;;;5025771;28;20118;-77
2023/03/25 07:09:15;;;;;;;0.52;0.20;;;8.90;78.10;;;;;;5036387;28;20056;-77
2023/03/25 07:11:42;;;;;;;0.20;0.10;;;8.90;78.30;;;;;;5028619;28;20022;-77
2023/03/25 07:14:08;;;;;;;0.20;0.20;;;9.00;78.60;;;;;;5016101;28;20042;-77
2023/03/25 07:16:34;;;;;;;1.13;0.30;;;9.00;78.60;;;;;;5017212;28;20033;-77
2023/03/25 07:19:00;;;;;;;0.30;0.20;;;8.90;78.70;;;;;;5033585;28;20637;-77
2023/03/25 07:21:25;;;;;;;0.40;0.20;;;8.90;79.30;;;;;;5032394;28;20033;-78
2023/03/25 07:23:51;;;;;;;0.52;0.22;;;9.00;79.60;;;;;;5018176;28;20041;-77
2023/03/25 07:26:17;;;;;;;1.05;0.40;;;9.00;79.80;;;;;;5013047;28;20030;-78
2023/03/25 07:28:43;;;;;;;0.75;0.20;;;9.20;79.50;;;;;;5018661;28;20030;-77
2023/03/25 07:31:14;;;;;;;0.57;0.15;;;9.30;79.10;;;;;;5033510;28;20044;-76
2023/03/25 07:33:40;;;;;;;0.88;0.28;;;9.40;79.20;;;;;;5033134;28;20030;-77
2023/03/25 07:36:09;;;;;;;1.15;0.20;;;9.40;78.90;;;;;;5032058;28;20029;-76
2023/03/25 07:38:38;;;;;;;1.08;0.20;;;9.30;78.80;;;;;;5036810;28;20021;-78
2023/03/25 07:41:12;;;;;;;0.45;0.20;;;9.10;79.30;;;;;;5138975;27;20419;-78
2023/03/25 07:43:38;;;;;;;0.40;0.20;;;9.10;80.00;;;;;;5135577;27;20035;-77
2023/03/25 07:46:08;;;;;;;1.10;0.20;;;9.10;79.90;;;;;;5132806;28;20020;-78
2023/03/25 07:48:35;;;;;;;0.20;0.20;;;9.10;80.00;;;;;;5123400;28;20043;-80
2023/03/25 07:51:01;;;;;;;1.08;0.30;;;9.00;79.80;;;;;;5122791;28;20047;-76
2023/03/25 07:53:26;;;;;;;1.30;0.20;;;9.10;79.50;;;;;;5126605;28;20039;-77
2023/03/25 07:55:52;;;;;;;0.55;0.28;;;9.20;79.60;;;;;;5119042;28;20050;-77
2023/03/25 07:58:18;;;;;;;3.25;0.30;;;9.40;79.30;;;;;;5119582;28;20109;-77
2023/03/25 08:00:44;;;;;;;0.82;0.15;;;9.60;78.20;;;;;;5121357;28;20083;-77
2023/03/25 08:03:14;;;;;;;0.60;0.38;;;9.60;78.00;;;;;;5114158;28;20048;-77
2023/03/25 08:05:46;;;;;;;0.20;0.10;;;9.70;77.80;;;;;;5112104;28;20034;-77
2023/03/25 08:08:12;;;;;;;1.52;0.50;;;9.60;77.90;;;;;;5112128;28;20035;-77
2023/03/25 08:10:42;;;;;;;1.13;0.40;;;9.60;78.00;;;;;;5119236;28;20069;-77
2023/03/25 08:13:08;;;;;;;0.40;0.25;;;9.80;78.30;;;;;;5119516;28;20031;-78
2023/03/25 08:15:34;;;;;;;0.10;0.10;;;10.10;77.60;;;;;;5118278;28;20038;-78
2023/03/25 08:18:01;;;;;;;0.25;0.22;;;10.40;77.10;;;;;;5113766;28;20545;-78
2023/03/25 08:20:27;;;;;;;0.63;0.40;;;10.60;76.80;;;;;;5112880;28;20073;-77
2023/03/25 08:22:53;;;;;;;0.82;0.30;;;10.70;75.90;;;;;;5112600;28;20107;-78
2023/03/25 08:25:18;;;;;;;1.85;0.30;;;10.70;75.40;;;;;;5110354;28;20047;-76
2023/03/25 08:27:44;;;;;;;2.40;0.20;;;10.70;75.30;;;;;;5112569;28;20024;-77
2023/03/25 08:30:14;;;;;;;1.75;0.30;;;10.70;75.00;;;;;;5113078;28;20032;-76
2023/03/25 08:32:40;;;;;;;0.30;0.30;;;10.80;75.40;;;;;;5114539;28;20027;-76
2023/03/25 08:35:06;;;;;;;0.47;0.22;;;11.00;74.80;;;;;;5117047;28;20481;-76
2023/03/25 08:37:36;;;;;;;0.45;0.17;;;11.30;74.20;;;;;;5117933;28;20034;-77
2023/03/25 08:40:10;;;;;;;1.00;0.55;;;11.40;73.70;;;;;;5118675;28;20027;-77
2023/03/25 08:42:37;;;;;;;0.98;0.20;;;11.40;73.20;;;;;;5125127;28;20012;-77
2023/03/25 08:45:03;;;;;;;0.30;0.20;;;11.20;72.70;;;;;;5118775;28;20028;-77
2023/03/25 08:47:30;;;;;;;0.40;0.20;;;11.00;74.10;;;;;;5115220;28;20028;-76
2023/03/25 08:49:55;;;;;;;0.80;0.30;;;10.90;75.30;;;;;;5114108;28;20039;-76
2023/03/25 08:52:21;;;;;;;1.00;0.30;;;11.10;75.50;;;;;;5106339;28;20481;-77
2023/03/25 08:54:47;;;;;;;0.88;0.30;;;11.20;75.00;;;;;;5096308;28;20499;-77
2023/03/25 08:57:12;;;;;;;0.73;0.30;;;11.40;73.50;;;;;;5096209;28;20066;-78
2023/03/25 08:59:38;;;;;;;0.40;0.15;;;11.50;72.00;;;;;;5096709;28;20055;-78
2023/03/25 09:02:04;;;;;;;0.30;0.20;;;11.30;72.70;;;;;;5096840;28;20024;-78
2023/03/25 09:04:30;;;;;;;0.35;0.20;;;11.30;73.30;;;;;;5097000;28;20016;-77
2023/03/25 09:06:56;;;;;;;0.20;0.20;;;11.20;73.40;;;;;;5093455;28;20021;-77
2023/03/25 09:09:22;;;;;;;3.75;0.47;;;11.00;74.30;;;;;;5097064;28;20553;-77
2023/03/25 09:11:48;;;;;;;0.95;0.32;;;11.00;74.40;;;;;;5096360;28;20028;-77
2023/03/25 09:14:14;;;;;;;1.05;0.35;;;10.90;74.80;;;;;;5096638;28;20106;-77
2023/03/25 09:16:40;;;;;;;0.32;0.32;;;11.00;75.10;;;;;;5097420;28;20024;-76
2023/03/25 09:19:05;;;;;;;0.90;0.30;;;11.10;74.90;;;;;;5089002;28;20032;-78
2023/03/25 09:21:31;;;;;;;3.55;0.20;;;11.20;74.10;;;;;;5096775;28;20032;-77
2023/03/25 09:23:57;;;;;;;0.93;0.30;;;11.30;73.10;;;;;;5093542;28;20046;-78
2023/03/25 09:26:24;;;;;;;0.55;0.15;;;11.20;73.30;;;;;;5096957;28;20117;-76
2023/03/25 09:28:50;;;;;;;1.00;0.38;;;11.40;73.80;;;;;;5098582;28;20031;-77
2023/03/25 09:31:17;;;;;;;0.82;0.40;;;11.80;72.70;;;;;;5097351;28;20020;-77
2023/03/25 09:33:42;;;;;;;1.52;0.40;;;12.00;71.10;;;;;;5096207;28;20383;-77
2023/03/25 09:36:08;;;;;;;2.38;0.50;;;12.30;71.00;;;;;;5095946;28;20020;-78
2023/03/25 09:38:34;;;;;;;2.67;0.52;;;12.50;68.90;;;;;;5095917;28;20020;-77
2023/03/25 09:41:11;;;;;;;1.55;0.93;;;12.50;67.50;;;;;;5095527;28;20405;-77
2023/03/25 09:43:59;;;;;;;0.65;0.30;;;12.30;67.90;;;;;;5096198;28;20028;-78
2023/03/25 09:46:26;;;;;;;1.15;0.32;;;12.20;69.10;;;;;;5117316;22;20044;-81
2023/03/25 09:48:54;;;;;;;0.65;0.20;;;12.20;68.80;;;;;;5099340;28;20087;-78
2023/03/25 09:51:23;;;;;;;1.02;0.50;;;12.20;69.70;;;;;;5115698;28;20075;-78
2023/03/25 09:53:59;;;;;;;3.35;1.13;;;12.50;69.30;;;;;;5112992;28;20088;-80
2023/03/25 09:56:32;;;;;;;2.13;0.57;;;12.80;67.50;;;;;;5090573;28;20020;-79
2023/03/25 09:59:04;;;;;;;0.68;0.40;;;13.10;66.90;;;;;;5054932;28;20123;-79
2023/03/25 10:01:30;;;;;;;1.20;0.50;;;13.30;65.70;;;;;;5088261;28;20058;-80
2023/03/25 10:04:01;;;;;;;1.00;0.55;;;13.30;64.70;;;;;;5075434;28;20092;-80
2023/03/25 10:06:31;;;;;;;1.00;0.50;;;13.30;65.10;;;;;;5088892;28;20035;-80
2023/03/25 10:09:09;;;;;;;2.28;0.47;;;13.10;64.30;;;;;;5065142;28;20017;-80
2023/03/25 10:11:34;;;;;;;4.07;0.55;;;13.00;65.00;;;;;;5072796;28;20017;-80
2023/03/25 10:14:13;;;;;;;2.85;0.60;;;12.90;64.60;;;;;;5062263;28;20051;-79
2023/03/25 10:16:48;;;;;;;2.83;0.50;;;12.90;65.00;;;;;;5083012;28;20059;-80
2023/03/25 10:19:32;;;;;;;1.05;0.50;;;13.00;64.60;;;;;;5058794;28;20081;-81
2023/03/25 10:22:03;;;;;;;4.85;0.90;;;13.10;64.20;;;;;;5068119;28;20041;-80
2023/03/25 10:24:41;;;;;;;2.47;0.40;;;13.30;63.70;;;;;;5067248;28;20025;-81
2023/03/25 10:27:41;;;;;;;1.15;0.30;;;13.40;63.40;;;;;;5063764;28;20025;-78
2023/03/25 10:30:13;;;;;;;1.70;0.50;;;13.50;63.10;;;;;;5048463;28;20043;-80
2023/03/25 10:32:43;;;;;;;1.60;0.75;;;13.50;62.10;;;;;;5070918;28;20080;-80
2023/03/25 10:35:15;;;;;;;2.90;0.40;;;13.40;61.40;;;;;;5084543;28;20029;-80
2023/03/25 10:37:41;;;;;;;2.38;0.55;;;13.10;62.00;;;;;;5085553;28;20215;-79
2023/03/25 10:40:32;;;;;;;3.28;0.50;;;12.90;62.00;;;;;;5089795;28;20047;-79
2023/03/25 10:43:26;;;;;;;1.25;0.55;;;12.80;63.20;;;;;;5092771;28;20043;-79
2023/03/25 10:46:01;;;;;;;0.50;0.50;;;12.70;63.60;;;;;;5092640;28;20020;-80
2023/03/25 10:48:29;;;;;;;2.20;0.30;;;12.50;65.30;;;;;;5072951;28;20044;-79
2023/03/25 10:51:11;;;;;;;1.38;0.25;;;12.30;67.30;;;;;;5072428;28;20043;-77
2023/03/25 10:53:39;;;;;;;;;;;12.20;68.40;;;;;;5069699;28;20027;-80
2023/03/25 10:56:10;;;;;;;2.20;0.40;;;12.40;67.20;;;;;;5093281;28;19920;-78
2023/03/25 10:58:39;;;;;;;1.55;0.32;;;12.80;67.90;;;;;;5059611;28;20089;-80
2023/03/25 11:01:13;;;;;;;0.47;0.30;;;13.20;66.60;;;;;;5066664;28;20033;-79
2023/03/25 11:03:40;;;;;;;1.33;0.60;;;13.50;65.50;;;;;;5044887;28;20371;-79
2023/03/25 11:06:12;;;;;;;1.38;0.55;;;13.60;64.60;;;;;;5081370;28;20032;-78
2023/03/25 11:09:06;;;;;;;0.68;0.30;;;13.60;62.90;;;;;;5060574;28;20017;-79
2023/03/25 11:11:33;;;;;;;0.52;0.30;;;13.50;63.20;;;;;;5066258;28;20060;-78
2023/03/25 11:14:01;;;;;;;1.05;0.30;;;13.40;62.50;;;;;;5066250;28;20025;-79
2023/03/25 11:16:41;;;;;;;0.63;0.40;;;13.60;62.20;;;;;;5089834;28;20084;-78
2023/03/25 11:19:34;;;;;;;1.70;0.47;;;14.00;61.90;;;;;;5072627;28;20020;-82
2023/03/25 11:22:01;;;;;;;;;;;14.20;59.70;;;;;;5077488;28;20104;-79
2023/03/25 11:24:31;;;;;;;1.60;0.80;;;14.10;59.50;;;;;;5061976;28;19917;-80
2023/03/25 11:26:58;;;;;;;0.73;0.40;;;13.90;59.70;;;;;;5057900;28;20016;-81
2023/03/25 11:29:25;;;;;;;0.30;0.30;;;13.70;60.40;;;;;;5074193;28;20017;-79
2023/03/25 11:32:25;;;;;;;1.70;0.30;;;13.50;61.10;;;;;;5076014;28;20043;-80
2023/03/25 11:34:52;;;;;;;0.60;0.30;;;13.30;61.70;;;;;;5062241;28;20033;-80
2023/03/25 11:37:20;;;;;;;1.63;0.52;;;13.10;63.00;;;;;;5074509;28;20038;-78
2023/03/25 11:39:54;;;;;;;0.70;0.40;;;13.20;63.80;;;;;;5076339;28;20117;-79
2023/03/25 11:42:31;;;;;;;1.63;0.73;;;13.30;62.60;;;;;;5078599;28;20052;-79
2023/03/25 11:44:59;;;;;;;1.10;0.60;;;13.20;62.00;;;;;;5089161;28;20096;-78
2023/03/25 11:47:36;;;;;;;0.50;0.50;;;13.10;63.00;;;;;;5079809;28;20029;-78
2023/03/25 11:50:04;;;;;;;1.50;0.38;;;13.30;62.20;;;;;;5060100;28;20021;-79
2023/03/25 11:52:42;;;;;;;0.30;0.30;;;13.30;62.10;;;;;;5074842;28;20385;-79
2023/03/25 11:55:17;;;;;;;0.20;0.20;;;13.30;62.40;;;;;;5061983;28;20021;-80
2023/03/25 11:57:45;;;;;;;1.05;0.40;;;13.60;62.10;;;;;;5065958;28;20484;-78
2023/03/25 12:00:36;;;;;;;0.20;0.20;;;13.50;61.20;;;;;;5074451;28;20078;-78
2023/03/25 12:03:16;;;;;;;1.77;0.50;;;13.40;61.60;;;;;;5075133;28;20110;-79
2023/03/25 12:05:42;;;;;;;0.80;0.32;;;13.30;62.30;;;;;;5056059;28;20128;-80
2023/03/25 12:08:14;;;;;;;1.40;0.52;;;13.30;61.70;;;;;;5054237;28;20025;-80
2023/03/25 12:10:48;;;;;;;0.40;0.30;;;13.20;61.00;;;;;;5035938;28;20025;-79
2023/03/25 12:13:35;;;;;;;0.93;0.50;;;13.20;62.10;;;;;;5068625;28;20151;-79
2023/03/25 12:16:32;;;;;;;0.43;0.43;;;13.40;61.80;;;;;;5074459;28;20157;-78
2023/03/25 12:19:18;;;;;;;0.40;0.30;;;13.60;61.50;;;;;;5039273;28;20021;-77
2023/03/25 12:21:50;;;;;;;0.45;0.30;;;13.70;60.70;;;;;;5043891;28;20016;-77
2023/03/25 12:24:37;;;;;;;1.58;0.65;;;13.90;60.20;;;;;;5071713;28;20461;-78
2023/03/25 12:27:21;;;;;;;0.73;0.60;;;14.00;60.10;;;;;;5078149;28;20043;-78
2023/03/25 12:29:50;;;;;;;0.38;0.30;;;14.20;59.90;;;;;;5082364;28;20043;-78
2023/03/25 12:32:41;;;;;;;1.00;0.50;;;14.10;59.70;;;;;;5075952;28;20029;-77
2023/03/25 12:35:48;;;;;;;3.03;0.52;;;14.00;60.50;;;;;;5064423;28;20121;-78
2023/03/25 12:38:53;;;;;;;0.52;0.28;;;13.90;60.10;;;;;;5082336;28;20036;-78
2023/03/25 12:41:33;;;;;;;2.08;1.15;;;13.60;60.60;;;;;;5053145;28;20025;-79
2023/03/25 12:44:20;;;;;;;0.13;0.13;;;13.40;61.80;;;;;;5066356;28;20128;-79
2023/03/25 12:46:58;;;;;;;0.30;0.30;;;13.40;61.90;;;;;;5063515;28;20029;-77
2023/03/25 12:49:41;;;;;;;0.55;0.32;;;13.20;62.30;;;;;;5047453;28;20096;-77
2023/03/25 12:52:19;;;;;;;;;;;13.00;63.30;;;;;;5062867;28;20497;-79
2023/03/25 12:55:19;;;;;;;0.38;0.38;;;13.20;63.60;;;;;;5072691;28;19944;-79
2023/03/25 12:58:11;;;;;;;2.25;0.50;;;13.40;63.30;;;;;;5040895;28;20497;-79
2023/03/25 13:01:00;;;;;;;0.35;0.13;;;13.60;61.90;;;;;;5066160;28;20029;-77
2023/03/25 13:03:59;;;;;;;0.73;0.50;;;13.70;61.60;;;;;;5066305;28;20035;-79
2023/03/25 13:06:58;;;;;;;0.52;0.30;;;13.70;61.40;;;;;;5076416;28;20017;-79
2023/03/25 13:09:30;;;;;;;0.30;0.30;;;13.90;61.20;;;;;;5043831;28;20028;-78
2023/03/25 13:12:10;;;;;;;0.28;0.22;;;14.10;60.70;;;;;;5060189;28;20110;-78
2023/03/25 13:15:12;;;;;;;0.40;0.20;;;14.00;60.10;;;;;;5057941;28;20089;-79
2023/03/25 13:17:50;;;;;;;1.25;0.47;;;14.20;60.50;;;;;;5032021;28;20036;-79
2023/03/25 13:20:17;;;;;;;0.68;0.22;;;14.50;58.60;;;;;;5051056;28;20202;-79
2023/03/25 13:22:48;;;;;;;0.50;0.30;;;14.60;58.30;;;;;;5062714;28;20096;-79
2023/03/25 13:25:26;;;;;;;0.95;0.25;;;14.80;58.20;;;;;;5070759;28;20032;-80